sensor_id;sensor_type;location;lat;lon;timestamp;P1;durP1;ratioP1;P2;durP2;ratioP2
23088;SDS011;11713;48.506;8.966;2022-10-16T00:00:56;2.57;;;1.20;;
23088;SDS011;11713;48.506;8.966;2022-10-16T00:03:22;2.13;;;1.37;;
23088;SDS011;11713;48.506;8.966;2022-10-16T00:05:48;2.00;;;1.20;;
23088;SDS011;11713;48.506;8.966;2022-10-16T00:08:14;2.93;;;1.30;;
23088;SDS011;11713;48.506;8.966;2022-10-16T00:10:40;1.50;;;1.20;;
23088;SDS011;11713;48.506;8.966;2022-10-16T00:15:38;4.23;;;1.40;;
23088;SDS011;11713;48.506;8.966;2022-10-16T00:18:04;2.37;;;1.30;;
23088;SDS011;11713;48.506;8.966;2022-10-16T00:20:30;4.83;;;1.90;;
23088;SDS011;11713;48.506;8.966;2022-10-16T00:23:00;2.60;;;1.03;;
23088;SDS011;11713;48.506;8.966;2022-10-16T00:25:25;2.60;;;1.17;;
23088;SDS011;11713;48.506;8.966;2022-10-16T00:27:51;1.50;;;1.30;;
23088;SDS011;11713;48.506;8.966;2022-10-16T00:30:17;1.03;;;1.00;;
23088;SDS011;11713;48.506;8.966;2022-10-16T00:32:43;2.40;;;1.10;;
23088;SDS011;11713;48.506;8.966;2022-10-16T00:35:09;2.43;;;1.60;;
23088;SDS011;11713;48.506;8.966;2022-10-16T00:37:35;3.90;;;2.20;;
23088;SDS011;11713;48.506;8.966;2022-10-16T00:40:01;5.97;;;2.90;;
23088;SDS011;11713;48.506;8.966;2022-10-16T00:42:26;3.27;;;2.40;;
23088;SDS011;11713;48.506;8.966;2022-10-16T00:44:56;2.63;;;2.23;;
23088;SDS011;11713;48.506;8.966;2022-10-16T00:49:49;3.97;;;2.07;;
23088;SDS011;11713;48.506;8.966;2022-10-16T00:52:18;3.53;;;2.20;;
23088;SDS011;11713;48.506;8.966;2022-10-16T00:54:45;2.37;;;2.17;;
23088;SDS011;11713;48.506;8.966;2022-10-16T00:57:12;2.53;;;2.10;;
23088;SDS011;11713;48.506;8.966;2022-10-16T00:59:47;2.23;;;1.80;;
23088;SDS011;11713;48.506;8.966;2022-10-16T01:02:15;4.67;;;2.10;;
23088;SDS011;11713;48.506;8.966;2022-10-16T01:04:46;3.30;;;1.83;;
23088;SDS011;11713;48.506;8.966;2022-10-16T01:10:09;3.63;;;1.90;;
23088;SDS011;11713;48.506;8.966;2022-10-16T01:15:30;5.47;;;2.03;;
23088;SDS011;11713;48.506;8.966;2022-10-16T01:20:50;2.93;;;1.83;;
23088;SDS011;11713;48.506;8.966;2022-10-16T01:26:20;4.57;;;2.10;;
23088;SDS011;11713;48.506;8.966;2022-10-16T01:29:16;3.17;;;2.20;;
23088;SDS011;11713;48.506;8.966;2022-10-16T01:31:48;3.87;;;2.20;;
23088;SDS011;11713;48.506;8.966;2022-10-16T01:34:21;3.50;;;2.10;;
23088;SDS011;11713;48.506;8.966;2022-10-16T01:36:55;4.07;;;2.17;;
23088;SDS011;11713;48.506;8.966;2022-10-16T01:39:25;2.87;;;2.40;;
23088;SDS011;11713;48.506;8.966;2022-10-16T01:41:58;4.40;;;2.30;;
23088;SDS011;11713;48.506;8.966;2022-10-16T01:44:32;4.90;;;2.27;;
23088;SDS011;11713;48.506;8.966;2022-10-16T01:46:59;2.90;;;2.27;;
23088;SDS011;11713;48.506;8.966;2022-10-16T01:49:27;4.07;;;2.47;;
23088;SDS011;11713;48.506;8.966;2022-10-16T01:51:58;3.13;;;2.47;;
23088;SDS011;11713;48.506;8.966;2022-10-16T01:54:26;2.80;;;2.30;;
23088;SDS011;11713;48.506;8.966;2022-10-16T01:56:56;4.17;;;2.10;;
23088;SDS011;11713;48.506;8.966;2022-10-16T01:59:24;4.47;;;2.37;;
23088;SDS011;11713;48.506;8.966;2022-10-16T02:01:55;3.00;;;2.10;;
23088;SDS011;11713;48.506;8.966;2022-10-16T02:04:29;2.30;;;2.10;;
23088;SDS011;11713;48.506;8.966;2022-10-16T02:06:59;3.40;;;2.20;;
23088;SDS011;11713;48.506;8.966;2022-10-16T02:09:25;5.37;;;2.20;;
23088;SDS011;11713;48.506;8.966;2022-10-16T02:11:53;2.53;;;2.03;;
23088;SDS011;11713;48.506;8.966;2022-10-16T02:14:21;3.10;;;2.10;;
23088;SDS011;11713;48.506;8.966;2022-10-16T02:16:49;4.53;;;2.37;;
23088;SDS011;11713;48.506;8.966;2022-10-16T02:19:16;4.27;;;2.07;;
23088;SDS011;11713;48.506;8.966;2022-10-16T02:27:10;2.20;;;2.00;;
23088;SDS011;11713;48.506;8.966;2022-10-16T02:29:43;2.40;;;2.13;;
23088;SDS011;11713;48.506;8.966;2022-10-16T02:32:16;4.97;;;2.40;;
23088;SDS011;11713;48.506;8.966;2022-10-16T02:34:46;5.13;;;2.13;;
23088;SDS011;11713;48.506;8.966;2022-10-16T02:37:14;3.00;;;2.17;;
23088;SDS011;11713;48.506;8.966;2022-10-16T02:39:42;4.03;;;2.00;;
23088;SDS011;11713;48.506;8.966;2022-10-16T02:42:11;4.50;;;2.13;;
23088;SDS011;11713;48.506;8.966;2022-10-16T02:44:38;3.53;;;2.27;;
23088;SDS011;11713;48.506;8.966;2022-10-16T02:47:04;3.20;;;2.30;;
23088;SDS011;11713;48.506;8.966;2022-10-16T02:49:30;5.87;;;2.30;;
23088;SDS011;11713;48.506;8.966;2022-10-16T02:51:56;5.67;;;2.53;;
23088;SDS011;11713;48.506;8.966;2022-10-16T02:54:22;3.77;;;2.10;;
23088;SDS011;11713;48.506;8.966;2022-10-16T02:56:49;3.60;;;2.03;;
23088;SDS011;11713;48.506;8.966;2022-10-16T02:59:15;6.80;;;2.40;;
23088;SDS011;11713;48.506;8.966;2022-10-16T03:01:41;3.47;;;2.23;;
23088;SDS011;11713;48.506;8.966;2022-10-16T03:04:07;2.40;;;2.10;;
23088;SDS011;11713;48.506;8.966;2022-10-16T03:06:33;2.70;;;2.40;;
23088;SDS011;11713;48.506;8.966;2022-10-16T03:08:59;3.07;;;2.10;;
23088;SDS011;11713;48.506;8.966;2022-10-16T03:11:30;2.20;;;2.00;;
23088;SDS011;11713;48.506;8.966;2022-10-16T03:13:56;2.07;;;1.87;;
23088;SDS011;11713;48.506;8.966;2022-10-16T03:16:22;4.73;;;2.20;;
23088;SDS011;11713;48.506;8.966;2022-10-16T03:18:48;3.97;;;2.20;;
23088;SDS011;11713;48.506;8.966;2022-10-16T03:21:15;3.67;;;2.30;;
23088;SDS011;11713;48.506;8.966;2022-10-16T03:23:41;3.17;;;2.20;;
23088;SDS011;11713;48.506;8.966;2022-10-16T03:26:07;2.80;;;2.03;;
23088;SDS011;11713;48.506;8.966;2022-10-16T03:28:33;3.83;;;2.40;;
23088;SDS011;11713;48.506;8.966;2022-10-16T03:30:59;2.40;;;2.20;;
23088;SDS011;11713;48.506;8.966;2022-10-16T03:33:25;2.60;;;2.07;;
23088;SDS011;11713;48.506;8.966;2022-10-16T03:35:51;4.63;;;2.27;;
23088;SDS011;11713;48.506;8.966;2022-10-16T03:38:18;2.97;;;2.60;;
23088;SDS011;11713;48.506;8.966;2022-10-16T03:40:44;3.47;;;2.10;;
23088;SDS011;11713;48.506;8.966;2022-10-16T03:43:10;4.73;;;2.33;;
23088;SDS011;11713;48.506;8.966;2022-10-16T03:45:36;4.03;;;2.30;;
23088;SDS011;11713;48.506;8.966;2022-10-16T03:48:02;3.70;;;2.60;;
23088;SDS011;11713;48.506;8.966;2022-10-16T03:50:28;4.37;;;2.40;;
23088;SDS011;11713;48.506;8.966;2022-10-16T03:52:55;3.50;;;2.10;;
23088;SDS011;11713;48.506;8.966;2022-10-16T03:55:21;4.00;;;2.30;;
23088;SDS011;11713;48.506;8.966;2022-10-16T03:57:54;4.13;;;2.30;;
23088;SDS011;11713;48.506;8.966;2022-10-16T04:05:25;3.80;;;2.40;;
23088;SDS011;11713;48.506;8.966;2022-10-16T04:07:51;5.27;;;2.37;;
23088;SDS011;11713;48.506;8.966;2022-10-16T04:10:17;4.03;;;2.37;;
23088;SDS011;11713;48.506;8.966;2022-10-16T04:12:44;2.73;;;2.10;;
23088;SDS011;11713;48.506;8.966;2022-10-16T04:15:10;3.40;;;2.23;;
23088;SDS011;11713;48.506;8.966;2022-10-16T04:17:36;2.57;;;2.10;;
23088;SDS011;11713;48.506;8.966;2022-10-16T04:20:02;2.60;;;2.20;;
23088;SDS011;11713;48.506;8.966;2022-10-16T04:22:28;4.27;;;2.00;;
23088;SDS011;11713;48.506;8.966;2022-10-16T04:24:54;3.33;;;2.10;;
23088;SDS011;11713;48.506;8.966;2022-10-16T04:27:20;3.80;;;2.07;;
23088;SDS011;11713;48.506;8.966;2022-10-16T04:29:46;3.33;;;2.10;;
23088;SDS011;11713;48.506;8.966;2022-10-16T04:32:12;2.70;;;1.80;;
23088;SDS011;11713;48.506;8.966;2022-10-16T04:34:38;4.30;;;2.00;;
23088;SDS011;11713;48.506;8.966;2022-10-16T04:37:05;4.00;;;2.23;;
23088;SDS011;11713;48.506;8.966;2022-10-16T04:39:31;3.70;;;2.13;;
23088;SDS011;11713;48.506;8.966;2022-10-16T04:41:57;7.40;;;2.37;;
23088;SDS011;11713;48.506;8.966;2022-10-16T04:44:23;5.67;;;2.30;;
23088;SDS011;11713;48.506;8.966;2022-10-16T04:46:52;4.53;;;2.03;;
23088;SDS011;11713;48.506;8.966;2022-10-16T04:49:18;2.43;;;1.90;;
23088;SDS011;11713;48.506;8.966;2022-10-16T04:51:44;3.83;;;2.10;;
23088;SDS011;11713;48.506;8.966;2022-10-16T04:54:10;4.00;;;2.00;;
23088;SDS011;11713;48.506;8.966;2022-10-16T04:56:35;4.87;;;2.00;;
23088;SDS011;11713;48.506;8.966;2022-10-16T04:59:08;3.20;;;2.10;;
23088;SDS011;11713;48.506;8.966;2022-10-16T05:01:38;4.47;;;2.00;;
23088;SDS011;11713;48.506;8.966;2022-10-16T05:04:04;3.93;;;2.33;;
23088;SDS011;11713;48.506;8.966;2022-10-16T05:06:30;2.60;;;1.77;;
23088;SDS011;11713;48.506;8.966;2022-10-16T05:08:55;3.73;;;2.10;;
23088;SDS011;11713;48.506;8.966;2022-10-16T05:11:21;2.97;;;1.90;;
23088;SDS011;11713;48.506;8.966;2022-10-16T05:13:47;3.30;;;2.37;;
23088;SDS011;11713;48.506;8.966;2022-10-16T05:16:13;3.20;;;2.30;;
23088;SDS011;11713;48.506;8.966;2022-10-16T05:18:39;6.10;;;2.17;;
23088;SDS011;11713;48.506;8.966;2022-10-16T05:21:05;5.20;;;2.30;;
23088;SDS011;11713;48.506;8.966;2022-10-16T05:23:31;2.57;;;2.07;;
23088;SDS011;11713;48.506;8.966;2022-10-16T05:25:57;3.07;;;2.30;;
23088;SDS011;11713;48.506;8.966;2022-10-16T05:28:25;3.77;;;2.20;;
23088;SDS011;11713;48.506;8.966;2022-10-16T05:30:51;7.00;;;2.23;;
23088;SDS011;11713;48.506;8.966;2022-10-16T05:33:19;5.13;;;2.33;;
23088;SDS011;11713;48.506;8.966;2022-10-16T05:35:46;4.57;;;2.30;;
23088;SDS011;11713;48.506;8.966;2022-10-16T05:38:12;2.73;;;2.10;;
23088;SDS011;11713;48.506;8.966;2022-10-16T05:40:38;2.57;;;2.30;;
23088;SDS011;11713;48.506;8.966;2022-10-16T05:43:04;3.30;;;2.20;;
23088;SDS011;11713;48.506;8.966;2022-10-16T05:45:30;3.50;;;2.10;;
23088;SDS011;11713;48.506;8.966;2022-10-16T05:47:56;2.17;;;1.97;;
23088;SDS011;11713;48.506;8.966;2022-10-16T05:50:22;3.90;;;2.03;;
23088;SDS011;11713;48.506;8.966;2022-10-16T05:52:47;1.70;;;1.60;;
23088;SDS011;11713;48.506;8.966;2022-10-16T05:55:13;3.97;;;1.80;;
23088;SDS011;11713;48.506;8.966;2022-10-16T06:00:19;2.27;;;2.00;;
23088;SDS011;11713;48.506;8.966;2022-10-16T06:02:45;3.93;;;2.30;;
23088;SDS011;11713;48.506;8.966;2022-10-16T06:05:11;4.20;;;2.10;;
23088;SDS011;11713;48.506;8.966;2022-10-16T06:07:37;5.27;;;2.60;;
23088;SDS011;11713;48.506;8.966;2022-10-16T06:10:03;4.47;;;2.23;;
23088;SDS011;11713;48.506;8.966;2022-10-16T06:12:30;2.67;;;2.10;;
23088;SDS011;11713;48.506;8.966;2022-10-16T06:14:56;2.30;;;2.10;;
23088;SDS011;11713;48.506;8.966;2022-10-16T06:17:21;2.60;;;2.17;;
23088;SDS011;11713;48.506;8.966;2022-10-16T06:19:47;6.67;;;2.20;;
23088;SDS011;11713;48.506;8.966;2022-10-16T06:22:13;2.87;;;2.27;;
23088;SDS011;11713;48.506;8.966;2022-10-16T06:24:39;3.73;;;2.40;;
23088;SDS011;11713;48.506;8.966;2022-10-16T06:27:05;5.13;;;2.10;;
23088;SDS011;11713;48.506;8.966;2022-10-16T06:29:31;3.57;;;2.30;;
23088;SDS011;11713;48.506;8.966;2022-10-16T06:31:57;2.63;;;2.17;;
23088;SDS011;11713;48.506;8.966;2022-10-16T06:34:23;3.60;;;2.10;;
23088;SDS011;11713;48.506;8.966;2022-10-16T06:36:48;4.57;;;2.20;;
23088;SDS011;11713;48.506;8.966;2022-10-16T06:39:14;4.03;;;2.07;;
23088;SDS011;11713;48.506;8.966;2022-10-16T06:41:40;6.67;;;2.00;;
23088;SDS011;11713;48.506;8.966;2022-10-16T06:44:14;2.47;;;1.63;;
23088;SDS011;11713;48.506;8.966;2022-10-16T06:46:49;2.10;;;1.90;;
23088;SDS011;11713;48.506;8.966;2022-10-16T06:49:16;3.30;;;2.20;;
23088;SDS011;11713;48.506;8.966;2022-10-16T06:51:46;4.50;;;2.00;;
23088;SDS011;11713;48.506;8.966;2022-10-16T06:54:12;4.83;;;2.50;;
23088;SDS011;11713;48.506;8.966;2022-10-16T06:56:40;3.53;;;2.20;;
23088;SDS011;11713;48.506;8.966;2022-10-16T06:59:06;3.63;;;2.87;;
23088;SDS011;11713;48.506;8.966;2022-10-16T07:01:35;4.87;;;2.33;;
23088;SDS011;11713;48.506;8.966;2022-10-16T07:04:01;4.23;;;2.03;;
23088;SDS011;11713;48.506;8.966;2022-10-16T07:06:30;3.87;;;2.37;;
23088;SDS011;11713;48.506;8.966;2022-10-16T07:08:57;4.13;;;2.10;;
23088;SDS011;11713;48.506;8.966;2022-10-16T07:11:23;4.77;;;1.97;;
23088;SDS011;11713;48.506;8.966;2022-10-16T07:13:49;2.37;;;2.10;;
23088;SDS011;11713;48.506;8.966;2022-10-16T07:16:19;7.50;;;2.77;;
23088;SDS011;11713;48.506;8.966;2022-10-16T07:18:46;3.93;;;2.37;;
23088;SDS011;11713;48.506;8.966;2022-10-16T07:21:18;10.73;;;2.73;;
23088;SDS011;11713;48.506;8.966;2022-10-16T07:24:01;6.87;;;2.67;;
23088;SDS011;11713;48.506;8.966;2022-10-16T07:26:29;2.40;;;2.20;;
23088;SDS011;11713;48.506;8.966;2022-10-16T07:28:56;3.23;;;2.80;;
23088;SDS011;11713;48.506;8.966;2022-10-16T07:31:22;3.87;;;2.20;;
23088;SDS011;11713;48.506;8.966;2022-10-16T07:33:48;7.63;;;2.80;;
23088;SDS011;11713;48.506;8.966;2022-10-16T07:36:15;5.10;;;2.60;;
23088;SDS011;11713;48.506;8.966;2022-10-16T07:38:43;5.73;;;2.53;;
23088;SDS011;11713;48.506;8.966;2022-10-16T07:41:13;3.10;;;2.17;;
23088;SDS011;11713;48.506;8.966;2022-10-16T07:43:45;3.00;;;2.33;;
23088;SDS011;11713;48.506;8.966;2022-10-16T07:46:12;4.73;;;2.53;;
23088;SDS011;11713;48.506;8.966;2022-10-16T07:48:39;4.50;;;2.33;;
23088;SDS011;11713;48.506;8.966;2022-10-16T07:51:05;4.53;;;2.80;;
23088;SDS011;11713;48.506;8.966;2022-10-16T07:56:21;3.80;;;2.60;;
23088;SDS011;11713;48.506;8.966;2022-10-16T07:58:48;2.87;;;2.27;;
23088;SDS011;11713;48.506;8.966;2022-10-16T08:01:30;3.40;;;2.20;;
23088;SDS011;11713;48.506;8.966;2022-10-16T08:03:56;4.00;;;2.07;;
23088;SDS011;11713;48.506;8.966;2022-10-16T08:06:22;3.73;;;2.17;;
23088;SDS011;11713;48.506;8.966;2022-10-16T08:08:48;3.30;;;1.80;;
23088;SDS011;11713;48.506;8.966;2022-10-16T08:11:14;4.07;;;2.10;;
23088;SDS011;11713;48.506;8.966;2022-10-16T08:13:41;4.33;;;2.60;;
23088;SDS011;11713;48.506;8.966;2022-10-16T08:16:07;3.67;;;2.57;;
23088;SDS011;11713;48.506;8.966;2022-10-16T08:18:37;8.43;;;2.73;;
23088;SDS011;11713;48.506;8.966;2022-10-16T08:21:04;3.00;;;2.23;;
23088;SDS011;11713;48.506;8.966;2022-10-16T08:23:31;4.43;;;2.13;;
23088;SDS011;11713;48.506;8.966;2022-10-16T08:26:01;2.57;;;2.30;;
23088;SDS011;11713;48.506;8.966;2022-10-16T08:28:29;3.40;;;2.10;;
23088;SDS011;11713;48.506;8.966;2022-10-16T08:30:55;2.47;;;2.27;;
23088;SDS011;11713;48.506;8.966;2022-10-16T08:33:22;2.33;;;2.13;;
23088;SDS011;11713;48.506;8.966;2022-10-16T08:35:52;2.42;;;2.03;;
23088;SDS011;11713;48.506;8.966;2022-10-16T08:38:18;2.58;;;2.38;;
23088;SDS011;11713;48.506;8.966;2022-10-16T08:40:45;3.17;;;2.40;;
23088;SDS011;11713;48.506;8.966;2022-10-16T08:46:24;3.55;;;2.45;;
23088;SDS011;11713;48.506;8.966;2022-10-16T08:48:34;3.88;;;2.10;;
23088;SDS011;11713;48.506;8.966;2022-10-16T08:52:10;2.67;;;1.90;;
23088;SDS011;11713;48.506;8.966;2022-10-16T08:54:41;2.30;;;2.10;;
23088;SDS011;11713;48.506;8.966;2022-10-16T08:57:13;3.17;;;2.22;;
23088;SDS011;11713;48.506;8.966;2022-10-16T08:59:43;4.28;;;2.30;;
23088;SDS011;11713;48.506;8.966;2022-10-16T09:10:56;5.38;;;2.33;;
23088;SDS011;11713;48.506;8.966;2022-10-16T09:13:54;8.50;;;2.50;;
23088;SDS011;11713;48.506;8.966;2022-10-16T09:16:39;3.05;;;2.38;;
23088;SDS011;11713;48.506;8.966;2022-10-16T09:19:38;3.30;;;2.03;;
23088;SDS011;11713;48.506;8.966;2022-10-16T09:22:10;3.60;;;2.30;;
23088;SDS011;11713;48.506;8.966;2022-10-16T09:24:40;3.72;;;2.15;;
23088;SDS011;11713;48.506;8.966;2022-10-16T09:27:15;3.35;;;2.40;;
23088;SDS011;11713;48.506;8.966;2022-10-16T09:29:41;3.63;;;2.30;;
23088;SDS011;11713;48.506;8.966;2022-10-16T09:32:11;2.95;;;2.17;;
23088;SDS011;11713;48.506;8.966;2022-10-16T09:34:43;3.08;;;2.08;;
23088;SDS011;11713;48.506;8.966;2022-10-16T09:37:14;3.45;;;2.10;;
23088;SDS011;11713;48.506;8.966;2022-10-16T09:39:45;2.15;;;1.95;;
23088;SDS011;11713;48.506;8.966;2022-10-16T09:42:19;2.50;;;1.90;;
23088;SDS011;11713;48.506;8.966;2022-10-16T09:44:52;3.42;;;1.77;;
23088;SDS011;11713;48.506;8.966;2022-10-16T09:47:28;3.10;;;2.00;;
23088;SDS011;11713;48.506;8.966;2022-10-16T09:49:57;4.25;;;1.92;;
23088;SDS011;11713;48.506;8.966;2022-10-16T09:52:31;3.28;;;1.67;;
23088;SDS011;11713;48.506;8.966;2022-10-16T09:54:59;3.58;;;2.00;;
23088;SDS011;11713;48.506;8.966;2022-10-16T09:57:51;2.75;;;1.85;;
23088;SDS011;11713;48.506;8.966;2022-10-16T10:00:33;3.97;;;2.10;;
23088;SDS011;11713;48.506;8.966;2022-10-16T10:02:59;2.13;;;2.00;;
23088;SDS011;11713;48.506;8.966;2022-10-16T10:05:33;3.30;;;2.45;;
23088;SDS011;11713;48.506;8.966;2022-10-16T10:08:00;4.30;;;1.92;;
23088;SDS011;11713;48.506;8.966;2022-10-16T10:10:37;4.13;;;2.45;;
23088;SDS011;11713;48.506;8.966;2022-10-16T10:13:20;4.30;;;2.22;;
23088;SDS011;11713;48.506;8.966;2022-10-16T10:15:51;3.03;;;2.10;;
23088;SDS011;11713;48.506;8.966;2022-10-16T10:18:24;3.28;;;1.90;;
23088;SDS011;11713;48.506;8.966;2022-10-16T10:21:02;2.20;;;1.80;;
23088;SDS011;11713;48.506;8.966;2022-10-16T10:23:31;4.35;;;1.90;;
23088;SDS011;11713;48.506;8.966;2022-10-16T10:26:03;2.85;;;1.90;;
23088;SDS011;11713;48.506;8.966;2022-10-16T10:31:29;3.10;;;2.10;;
23088;SDS011;11713;48.506;8.966;2022-10-16T10:36:44;3.83;;;1.70;;
23088;SDS011;11713;48.506;8.966;2022-10-16T10:39:40;4.20;;;1.90;;
23088;SDS011;11713;48.506;8.966;2022-10-16T10:48:06;2.10;;;1.42;;
23088;SDS011;11713;48.506;8.966;2022-10-16T10:51:04;4.97;;;1.45;;
23088;SDS011;11713;48.506;8.966;2022-10-16T10:53:37;1.58;;;1.48;;
23088;SDS011;11713;48.506;8.966;2022-10-16T10:56:39;3.00;;;1.60;;
23088;SDS011;11713;48.506;8.966;2022-10-16T11:02:31;1.48;;;1.33;;
23088;SDS011;11713;48.506;8.966;2022-10-16T11:07:53;2.35;;;1.50;;
23088;SDS011;11713;48.506;8.966;2022-10-16T11:10:30;2.58;;;1.42;;
23088;SDS011;11713;48.506;8.966;2022-10-16T11:13:20;4.40;;;1.50;;
23088;SDS011;11713;48.506;8.966;2022-10-16T11:15:52;2.50;;;1.50;;
23088;SDS011;11713;48.506;8.966;2022-10-16T11:18:22;1.48;;;1.30;;
23088;SDS011;11713;48.506;8.966;2022-10-16T11:20:57;3.35;;;1.35;;
23088;SDS011;11713;48.506;8.966;2022-10-16T11:23:32;1.45;;;1.10;;
23088;SDS011;11713;48.506;8.966;2022-10-16T11:26:26;2.28;;;1.40;;
23088;SDS011;11713;48.506;8.966;2022-10-16T11:28:56;1.40;;;1.00;;
23088;SDS011;11713;48.506;8.966;2022-10-16T11:34:21;3.53;;;1.10;;
23088;SDS011;11713;48.506;8.966;2022-10-16T11:36:57;1.65;;;1.30;;
23088;SDS011;11713;48.506;8.966;2022-10-16T11:39:46;1.33;;;1.23;;
23088;SDS011;11713;48.506;8.966;2022-10-16T11:42:20;2.63;;;1.38;;
23088;SDS011;11713;48.506;8.966;2022-10-16T11:55:49;2.03;;;1.30;;
23088;SDS011;11713;48.506;8.966;2022-10-16T12:07:04;5.13;;;2.10;;
23088;SDS011;11713;48.506;8.966;2022-10-16T12:09:41;3.22;;;1.52;;
23088;SDS011;11713;48.506;8.966;2022-10-16T12:12:27;2.33;;;1.23;;
23088;SDS011;11713;48.506;8.966;2022-10-16T12:15:21;3.40;;;1.55;;
23088;SDS011;11713;48.506;8.966;2022-10-16T12:17:51;1.38;;;1.20;;
23088;SDS011;11713;48.506;8.966;2022-10-16T12:23:24;1.67;;;1.40;;
23088;SDS011;11713;48.506;8.966;2022-10-16T12:25:54;3.13;;;1.58;;
23088;SDS011;11713;48.506;8.966;2022-10-16T12:28:25;1.73;;;1.38;;
23088;SDS011;11713;48.506;8.966;2022-10-16T12:30:57;1.73;;;1.52;;
23088;SDS011;11713;48.506;8.966;2022-10-16T12:33:51;1.85;;;1.50;;
23088;SDS011;11713;48.506;8.966;2022-10-16T12:36:54;2.28;;;1.55;;
23088;SDS011;11713;48.506;8.966;2022-10-16T12:39:20;1.63;;;1.38;;
23088;SDS011;11713;48.506;8.966;2022-10-16T12:42:00;1.83;;;1.45;;
23088;SDS011;11713;48.506;8.966;2022-10-16T12:44:32;2.55;;;1.45;;
23088;SDS011;11713;48.506;8.966;2022-10-16T12:46:59;1.67;;;1.58;;
23088;SDS011;11713;48.506;8.966;2022-10-16T12:49:35;1.60;;;1.50;;
23088;SDS011;11713;48.506;8.966;2022-10-16T12:52:04;3.53;;;1.60;;
23088;SDS011;11713;48.506;8.966;2022-10-16T12:54:31;2.35;;;1.80;;
23088;SDS011;11713;48.506;8.966;2022-10-16T12:59:43;1.55;;;1.45;;
23088;SDS011;11713;48.506;8.966;2022-10-16T13:08:53;2.80;;;1.60;;
23088;SDS011;11713;48.506;8.966;2022-10-16T13:25:08;2.47;;;1.60;;
23088;SDS011;11713;48.506;8.966;2022-10-16T13:28:21;2.58;;;1.65;;
23088;SDS011;11713;48.506;8.966;2022-10-16T13:33:07;2.28;;;1.60;;
23088;SDS011;11713;48.506;8.966;2022-10-16T13:41:40;1.77;;;1.67;;
23088;SDS011;11713;48.506;8.966;2022-10-16T13:44:14;1.70;;;1.60;;
23088;SDS011;11713;48.506;8.966;2022-10-16T13:46:43;1.90;;;1.58;;
23088;SDS011;11713;48.506;8.966;2022-10-16T13:49:14;2.10;;;1.60;;
23088;SDS011;11713;48.506;8.966;2022-10-16T13:51:53;2.15;;;1.40;;
23088;SDS011;11713;48.506;8.966;2022-10-16T13:54:21;2.88;;;2.05;;
23088;SDS011;11713;48.506;8.966;2022-10-16T13:56:47;3.40;;;1.83;;
23088;SDS011;11713;48.506;8.966;2022-10-16T13:59:26;2.55;;;1.80;;
23088;SDS011;11713;48.506;8.966;2022-10-16T14:02:33;2.13;;;1.58;;
23088;SDS011;11713;48.506;8.966;2022-10-16T14:05:02;1.85;;;1.60;;
23088;SDS011;11713;48.506;8.966;2022-10-16T14:07:33;2.03;;;1.80;;
23088;SDS011;11713;48.506;8.966;2022-10-16T14:10:01;1.75;;;1.65;;
23088;SDS011;11713;48.506;8.966;2022-10-16T14:12:44;1.77;;;1.67;;
23088;SDS011;11713;48.506;8.966;2022-10-16T14:15:16;1.75;;;1.65;;
23088;SDS011;11713;48.506;8.966;2022-10-16T14:17:44;2.42;;;1.75;;
23088;SDS011;11713;48.506;8.966;2022-10-16T14:20:14;2.90;;;1.80;;
23088;SDS011;11713;48.506;8.966;2022-10-16T14:22:41;3.58;;;1.77;;
23088;SDS011;11713;48.506;8.966;2022-10-16T14:28:02;1.65;;;1.55;;
23088;SDS011;11713;48.506;8.966;2022-10-16T14:36:12;4.38;;;2.05;;
23088;SDS011;11713;48.506;8.966;2022-10-16T14:38:48;1.70;;;1.60;;
23088;SDS011;11713;48.506;8.966;2022-10-16T14:41:31;1.60;;;1.50;;
23088;SDS011;11713;48.506;8.966;2022-10-16T14:44:06;1.85;;;1.70;;
23088;SDS011;11713;48.506;8.966;2022-10-16T14:46:37;1.98;;;1.73;;
23088;SDS011;11713;48.506;8.966;2022-10-16T14:51:35;2.00;;;1.80;;
23088;SDS011;11713;48.506;8.966;2022-10-16T14:54:03;2.17;;;1.80;;
23088;SDS011;11713;48.506;8.966;2022-10-16T14:56:31;4.07;;;1.90;;
23088;SDS011;11713;48.506;8.966;2022-10-16T14:59:11;1.63;;;1.50;;
23088;SDS011;11713;48.506;8.966;2022-10-16T15:01:51;2.90;;;1.85;;
23088;SDS011;11713;48.506;8.966;2022-10-16T15:04:18;3.05;;;1.70;;
23088;SDS011;11713;48.506;8.966;2022-10-16T15:06:44;3.15;;;2.00;;
23088;SDS011;11713;48.506;8.966;2022-10-16T15:09:11;2.67;;;1.92;;
23088;SDS011;11713;48.506;8.966;2022-10-16T15:11:38;1.73;;;1.63;;
23088;SDS011;11713;48.506;8.966;2022-10-16T15:14:04;2.15;;;1.95;;
23088;SDS011;11713;48.506;8.966;2022-10-16T15:16:31;2.40;;;1.70;;
23088;SDS011;11713;48.506;8.966;2022-10-16T15:18:58;3.85;;;1.95;;
23088;SDS011;11713;48.506;8.966;2022-10-16T15:21:35;4.20;;;1.77;;
23088;SDS011;11713;48.506;8.966;2022-10-16T15:24:02;2.20;;;2.00;;
23088;SDS011;11713;48.506;8.966;2022-10-16T15:26:34;2.67;;;1.83;;
23088;SDS011;11713;48.506;8.966;2022-10-16T15:29:07;2.45;;;1.98;;
23088;SDS011;11713;48.506;8.966;2022-10-16T15:31:34;2.65;;;1.75;;
23088;SDS011;11713;48.506;8.966;2022-10-16T15:34:01;2.90;;;1.70;;
23088;SDS011;11713;48.506;8.966;2022-10-16T15:36:33;3.05;;;1.70;;
23088;SDS011;11713;48.506;8.966;2022-10-16T15:39:06;1.90;;;1.70;;
23088;SDS011;11713;48.506;8.966;2022-10-16T15:41:40;2.15;;;2.00;;
23088;SDS011;11713;48.506;8.966;2022-10-16T15:46:43;2.85;;;1.92;;
23088;SDS011;11713;48.506;8.966;2022-10-16T15:49:09;1.90;;;1.80;;
23088;SDS011;11713;48.506;8.966;2022-10-16T15:51:39;1.88;;;1.70;;
23088;SDS011;11713;48.506;8.966;2022-10-16T15:54:06;2.72;;;2.03;;
23088;SDS011;11713;48.506;8.966;2022-10-16T15:56:33;4.00;;;2.00;;
23088;SDS011;11713;48.506;8.966;2022-10-16T16:01:56;3.55;;;2.50;;
23088;SDS011;11713;48.506;8.966;2022-10-16T16:04:23;3.80;;;2.15;;
23088;SDS011;11713;48.506;8.966;2022-10-16T16:06:49;2.33;;;2.13;;
23088;SDS011;11713;48.506;8.966;2022-10-16T16:09:15;3.78;;;2.08;;
23088;SDS011;11713;48.506;8.966;2022-10-16T16:11:41;3.67;;;2.10;;
23088;SDS011;11713;48.506;8.966;2022-10-16T16:14:07;3.20;;;2.28;;
23088;SDS011;11713;48.506;8.966;2022-10-16T16:16:38;2.75;;;2.10;;
23088;SDS011;11713;48.506;8.966;2022-10-16T16:19:04;2.88;;;2.40;;
23088;SDS011;11713;48.506;8.966;2022-10-16T16:21:32;2.20;;;1.88;;
23088;SDS011;11713;48.506;8.966;2022-10-16T16:23:58;3.95;;;2.25;;
23088;SDS011;11713;48.506;8.966;2022-10-16T16:26:25;3.97;;;2.47;;
23088;SDS011;11713;48.506;8.966;2022-10-16T16:28:53;2.95;;;2.10;;
23088;SDS011;11713;48.506;8.966;2022-10-16T16:31:25;3.88;;;2.47;;
23088;SDS011;11713;48.506;8.966;2022-10-16T16:33:52;4.78;;;2.22;;
23088;SDS011;11713;48.506;8.966;2022-10-16T16:36:19;4.03;;;2.05;;
23088;SDS011;11713;48.506;8.966;2022-10-16T16:38:45;6.88;;;2.38;;
23088;SDS011;11713;48.506;8.966;2022-10-16T16:41:14;2.17;;;1.98;;
23088;SDS011;11713;48.506;8.966;2022-10-16T16:43:42;2.38;;;1.80;;
23088;SDS011;11713;48.506;8.966;2022-10-16T16:46:08;3.28;;;2.05;;
23088;SDS011;11713;48.506;8.966;2022-10-16T16:48:35;2.10;;;1.90;;
23088;SDS011;11713;48.506;8.966;2022-10-16T16:51:03;2.05;;;1.95;;
23088;SDS011;11713;48.506;8.966;2022-10-16T16:53:41;4.60;;;2.20;;
23088;SDS011;11713;48.506;8.966;2022-10-16T16:56:12;2.72;;;1.90;;
23088;SDS011;11713;48.506;8.966;2022-10-16T17:01:36;5.30;;;2.10;;
23088;SDS011;11713;48.506;8.966;2022-10-16T17:04:02;5.13;;;2.17;;
23088;SDS011;11713;48.506;8.966;2022-10-16T17:06:28;2.85;;;2.30;;
23088;SDS011;11713;48.506;8.966;2022-10-16T17:08:54;5.45;;;2.80;;
23088;SDS011;11713;48.506;8.966;2022-10-16T17:11:22;7.45;;;2.72;;
23088;SDS011;11713;48.506;8.966;2022-10-16T17:13:50;4.55;;;2.60;;
23088;SDS011;11713;48.506;8.966;2022-10-16T17:16:19;5.40;;;2.83;;
23088;SDS011;11713;48.506;8.966;2022-10-16T17:18:46;3.72;;;2.65;;
23088;SDS011;11713;48.506;8.966;2022-10-16T17:21:12;4.55;;;3.17;;
23088;SDS011;11713;48.506;8.966;2022-10-16T17:23:41;4.32;;;2.60;;